sensor_id;sensor_type;location;lat;lon;timestamp;temperature;humidity
21312;DHT22;18076;52.154;10.570;2023-11-21T00:01:49;8.10;99.90
21312;DHT22;18076;52.154;10.570;2023-11-21T00:04:15;8.10;99.90
21312;DHT22;18076;52.154;10.570;2023-11-21T00:06:40;8.10;99.90
21312;DHT22;18076;52.154;10.570;2023-11-21T00:09:06;8.10;99.90
21312;DHT22;18076;52.154;10.570;2023-11-21T00:11:33;8.10;99.90
21312;DHT22;18076;52.154;10.570;2023-11-21T00:13:59;8.20;99.90
21312;DHT22;18076;52.154;10.570;2023-11-21T00:16:25;8.10;99.90
21312;DHT22;18076;52.154;10.570;2023-11-21T00:18:50;8.10;99.90
21312;DHT22;18076;52.154;10.570;2023-11-21T00:21:16;8.10;99.90
21312;DHT22;18076;52.154;10.570;2023-11-21T00:23:42;8.10;99.90
21312;DHT22;18076;52.154;10.570;2023-11-21T00:26:08;8.10;99.90
21312;DHT22;18076;52.154;10.570;2023-11-21T00:28:33;8.10;99.90
21312;DHT22;18076;52.154;10.570;2023-11-21T00:30:59;8.10;99.90
21312;DHT22;18076;52.154;10.570;2023-11-21T00:33:24;8.10;99.90
21312;DHT22;18076;52.154;10.570;2023-11-21T00:35:50;8.10;99.90
21312;DHT22;18076;52.154;10.570;2023-11-21T00:38:16;8.10;99.90
21312;DHT22;18076;52.154;10.570;2023-11-21T00:40:45;8.10;99.90
21312;DHT22;18076;52.154;10.570;2023-11-21T00:43:10;8.10;99.90
21312;DHT22;18076;52.154;10.570;2023-11-21T00:45:36;8.00;99.90
21312;DHT22;18076;52.154;10.570;2023-11-21T00:48:02;8.10;99.90
21312;DHT22;18076;52.154;10.570;2023-11-21T00:50:27;8.10;99.90
21312;DHT22;18076;52.154;10.570;2023-11-21T00:52:53;8.10;99.90
21312;DHT22;18076;52.154;10.570;2023-11-21T00:55:18;8.20;99.90
21312;DHT22;18076;52.154;10.570;2023-11-21T00:57:44;8.10;99.90
21312;DHT22;18076;52.154;10.570;2023-11-21T01:00:10;8.10;99.90
21312;DHT22;18076;52.154;10.570;2023-11-21T01:02:43;8.20;99.90
21312;DHT22;18076;52.154;10.570;2023-11-21T01:05:10;8.10;99.90
21312;DHT22;18076;52.154;10.570;2023-11-21T01:07:36;8.10;99.90
21312;DHT22;18076;52.154;10.570;2023-11-21T01:10:02;8.00;99.90
21312;DHT22;18076;52.154;10.570;2023-11-21T01:12:28;8.00;99.90
21312;DHT22;18076;52.154;10.570;2023-11-21T01:14:53;8.00;99.90
21312;DHT22;18076;52.154;10.570;2023-11-21T01:17:19;8.00;99.90
21312;DHT22;18076;52.154;10.570;2023-11-21T01:19:44;8.10;99.90
21312;DHT22;18076;52.154;10.570;2023-11-21T01:22:10;8.00;99.90
21312;DHT22;18076;52.154;10.570;2023-11-21T01:24:37;8.00;99.90
21312;DHT22;18076;52.154;10.570;2023-11-21T01:27:02;8.00;99.90
21312;DHT22;18076;52.154;10.570;2023-11-21T01:29:29;8.00;99.90
21312;DHT22;18076;52.154;10.570;2023-11-21T01:31:55;7.90;99.90
21312;DHT22;18076;52.154;10.570;2023-11-21T01:34:22;7.90;99.90
21312;DHT22;18076;52.154;10.570;2023-11-21T01:36:48;7.90;99.90
21312;DHT22;18076;52.154;10.570;2023-11-21T01:39:14;7.90;99.90
21312;DHT22;18076;52.154;10.570;2023-11-21T01:41:41;7.90;99.90
21312;DHT22;18076;52.154;10.570;2023-11-21T01:44:09;8.00;99.90
21312;DHT22;18076;52.154;10.570;2023-11-21T01:46:35;8.00;99.90
21312;DHT22;18076;52.154;10.570;2023-11-21T01:49:00;7.90;99.90
21312;DHT22;18076;52.154;10.570;2023-11-21T01:51:26;7.90;99.90
21312;DHT22;18076;52.154;10.570;2023-11-21T01:53:52;7.90;99.90
21312;DHT22;18076;52.154;10.570;2023-11-21T01:56:18;7.90;99.90
21312;DHT22;18076;52.154;10.570;2023-11-21T01:58:43;7.90;99.90
21312;DHT22;18076;52.154;10.570;2023-11-21T02:01:09;7.90;99.90
21312;DHT22;18076;52.154;10.570;2023-11-21T02:03:35;7.90;99.90
21312;DHT22;18076;52.154;10.570;2023-11-21T02:06:01;7.90;99.90
21312;DHT22;18076;52.154;10.570;2023-11-21T02:08:26;7.90;99.90
21312;DHT22;18076;52.154;10.570;2023-11-21T02:10:52;7.90;99.90
21312;DHT22;18076;52.154;10.570;2023-11-21T02:13:17;7.90;99.90
21312;DHT22;18076;52.154;10.570;2023-11-21T02:15:43;7.90;99.90
21312;DHT22;18076;52.154;10.570;2023-11-21T02:18:09;7.90;99.90
21312;DHT22;18076;52.154;10.570;2023-11-21T02:20:36;7.90;99.90
21312;DHT22;18076;52.154;10.570;2023-11-21T02:23:04;7.90;99.90
21312;DHT22;18076;52.154;10.570;2023-11-21T02:25:31;7.90;99.90
21312;DHT22;18076;52.154;10.570;2023-11-21T02:27:58;8.00;99.90
21312;DHT22;18076;52.154;10.570;2023-11-21T02:30:23;8.00;99.90
21312;DHT22;18076;52.154;10.570;2023-11-21T02:32:51;7.90;99.90
21312;DHT22;18076;52.154;10.570;2023-11-21T02:35:19;8.00;99.90
21312;DHT22;18076;52.154;10.570;2023-11-21T02:37:48;8.10;99.90
21312;DHT22;18076;52.154;10.570;2023-11-21T02:40:14;8.00;99.90
21312;DHT22;18076;52.154;10.570;2023-11-21T02:42:43;8.10;99.90
21312;DHT22;18076;52.154;10.570;2023-11-21T02:45:09;8.10;99.90
21312;DHT22;18076;52.154;10.570;2023-11-21T02:47:35;8.00;99.90
21312;DHT22;18076;52.154;10.570;2023-11-21T02:50:01;8.00;99.90
21312;DHT22;18076;52.154;10.570;2023-11-21T02:52:27;8.00;99.90
21312;DHT22;18076;52.154;10.570;2023-11-21T02:54:52;8.10;99.90
21312;DHT22;18076;52.154;10.570;2023-11-21T02:57:18;8.00;99.90
21312;DHT22;18076;52.154;10.570;2023-11-21T02:59:44;8.10;99.90
21312;DHT22;18076;52.154;10.570;2023-11-21T03:02:10;8.10;99.90
21312;DHT22;18076;52.154;10.570;2023-11-21T03:04:35;8.10;99.90
21312;DHT22;18076;52.154;10.570;2023-11-21T03:07:01;8.10;99.90
21312;DHT22;18076;52.154;10.570;2023-11-21T03:09:26;8.10;99.90
21312;DHT22;18076;52.154;10.570;2023-11-21T03:11:53;8.10;99.90
21312;DHT22;18076;52.154;10.570;2023-11-21T03:14:18;8.20;99.90
21312;DHT22;18076;52.154;10.570;2023-11-21T03:16:44;8.20;99.90
21312;DHT22;18076;52.154;10.570;2023-11-21T03:19:10;8.20;99.90
21312;DHT22;18076;52.154;10.570;2023-11-21T03:21:36;8.20;99.90
21312;DHT22;18076;52.154;10.570;2023-11-21T03:24:02;8.10;99.90
21312;DHT22;18076;52.154;10.570;2023-11-21T03:26:27;8.20;99.90
21312;DHT22;18076;52.154;10.570;2023-11-21T03:28:53;8.20;99.90
21312;DHT22;18076;52.154;10.570;2023-11-21T03:31:18;8.20;99.90
21312;DHT22;18076;52.154;10.570;2023-11-21T03:33:45;8.20;99.90
21312;DHT22;18076;52.154;10.570;2023-11-21T03:36:11;8.30;99.90
21312;DHT22;18076;52.154;10.570;2023-11-21T03:38:36;8.20;99.90
21312;DHT22;18076;52.154;10.570;2023-11-21T03:41:02;8.30;99.90
21312;DHT22;18076;52.154;10.570;2023-11-21T03:43:27;8.30;99.90
21312;DHT22;18076;52.154;10.570;2023-11-21T03:45:53;8.30;99.90
21312;DHT22;18076;52.154;10.570;2023-11-21T03:48:18;8.30;99.90
21312;DHT22;18076;52.154;10.570;2023-11-21T03:50:44;8.30;99.90
21312;DHT22;18076;52.154;10.570;2023-11-21T03:53:09;8.30;99.90
21312;DHT22;18076;52.154;10.570;2023-11-21T03:55:35;8.30;99.90
21312;DHT22;18076;52.154;10.570;2023-11-21T03:58:00;8.30;99.90
21312;DHT22;18076;52.154;10.570;2023-11-21T04:00:26;8.30;99.90
21312;DHT22;18076;52.154;10.570;2023-11-21T04:02:54;8.30;99.90
21312;DHT22;18076;52.154;10.570;2023-11-21T04:05:20;8.30;99.90
21312;DHT22;18076;52.154;10.570;2023-11-21T04:07:48;8.30;99.90
21312;DHT22;18076;52.154;10.570;2023-11-21T04:10:14;8.20;99.90
21312;DHT22;18076;52.154;10.570;2023-11-21T04:12:41;8.30;99.90
21312;DHT22;18076;52.154;10.570;2023-11-21T04:15:06;8.20;99.90
21312;DHT22;18076;52.154;10.570;2023-11-21T04:17:34;8.20;99.90
21312;DHT22;18076;52.154;10.570;2023-11-21T04:19:59;8.20;99.90
21312;DHT22;18076;52.154;10.570;2023-11-21T04:22:25;8.20;99.90
21312;DHT22;18076;52.154;10.570;2023-11-21T04:24:50;8.20;99.90
21312;DHT22;18076;52.154;10.570;2023-11-21T04:27:16;8.20;99.90
21312;DHT22;18076;52.154;10.570;2023-11-21T04:29:43;8.20;99.90
21312;DHT22;18076;52.154;10.570;2023-11-21T04:32:09;8.20;99.90
21312;DHT22;18076;52.154;10.570;2023-11-21T04:34:35;8.20;99.90
21312;DHT22;18076;52.154;10.570;2023-11-21T04:37:00;8.20;99.90
21312;DHT22;18076;52.154;10.570;2023-11-21T04:39:26;8.20;99.90
21312;DHT22;18076;52.154;10.570;2023-11-21T04:41:51;8.30;99.90
21312;DHT22;18076;52.154;10.570;2023-11-21T04:44:17;8.30;99.90
21312;DHT22;18076;52.154;10.570;2023-11-21T04:46:43;8.30;99.90
21312;DHT22;18076;52.154;10.570;2023-11-21T04:49:08;8.30;99.90
21312;DHT22;18076;52.154;10.570;2023-11-21T04:51:36;8.30;99.90
21312;DHT22;18076;52.154;10.570;2023-11-21T04:54:01;8.20;99.90
21312;DHT22;18076;52.154;10.570;2023-11-21T04:56:28;8.30;99.90
21312;DHT22;18076;52.154;10.570;2023-11-21T04:58:53;8.20;99.90
21312;DHT22;18076;52.154;10.570;2023-11-21T05:01:19;8.20;99.90
21312;DHT22;18076;52.154;10.570;2023-11-21T05:03:44;8.20;99.90
21312;DHT22;18076;52.154;10.570;2023-11-21T05:06:11;8.20;99.90
21312;DHT22;18076;52.154;10.570;2023-11-21T05:08:37;8.20;99.90
21312;DHT22;18076;52.154;10.570;2023-11-21T05:11:03;8.20;99.90
21312;DHT22;18076;52.154;10.570;2023-11-21T05:13:28;8.20;99.90
21312;DHT22;18076;52.154;10.570;2023-11-21T05:15:54;8.10;99.90
21312;DHT22;18076;52.154;10.570;2023-11-21T05:18:21;8.20;99.90
21312;DHT22;18076;52.154;10.570;2023-11-21T05:20:47;8.10;99.90
21312;DHT22;18076;52.154;10.570;2023-11-21T05:23:16;8.20;99.90
21312;DHT22;18076;52.154;10.570;2023-11-21T05:25:42;8.10;99.90
21312;DHT22;18076;52.154;10.570;2023-11-21T05:28:07;8.20;99.90
21312;DHT22;18076;52.154;10.570;2023-11-21T05:30:33;8.10;99.90
21312;DHT22;18076;52.154;10.570;2023-11-21T05:32:59;8.10;99.90
21312;DHT22;18076;52.154;10.570;2023-11-21T05:35:24;8.20;99.90
21312;DHT22;18076;52.154;10.570;2023-11-21T05:37:50;8.20;99.90
21312;DHT22;18076;52.154;10.570;2023-11-21T05:40:15;8.20;99.90
21312;DHT22;18076;52.154;10.570;2023-11-21T05:42:41;8.20;99.90
21312;DHT22;18076;52.154;10.570;2023-11-21T05:45:07;8.20;99.90
21312;DHT22;18076;52.154;10.570;2023-11-21T05:47:37;8.20;99.90
21312;DHT22;18076;52.154;10.570;2023-11-21T05:50:04;8.10;99.90
21312;DHT22;18076;52.154;10.570;2023-11-21T05:52:31;8.10;99.90
21312;DHT22;18076;52.154;10.570;2023-11-21T05:54:57;8.10;99.90
21312;DHT22;18076;52.154;10.570;2023-11-21T05:57:23;8.10;99.90
21312;DHT22;18076;52.154;10.570;2023-11-21T05:59:48;8.10;99.90
21312;DHT22;18076;52.154;10.570;2023-11-21T06:02:14;8.20;99.90
21312;DHT22;18076;52.154;10.570;2023-11-21T06:04:40;8.20;99.90
21312;DHT22;18076;52.154;10.570;2023-11-21T06:07:05;8.20;99.90
21312;DHT22;18076;52.154;10.570;2023-11-21T06:09:31;8.10;99.90
21312;DHT22;18076;52.154;10.570;2023-11-21T06:11:57;8.10;99.90
21312;DHT22;18076;52.154;10.570;2023-11-21T06:14:22;8.10;99.90
21312;DHT22;18076;52.154;10.570;2023-11-21T06:16:48;8.10;99.90
21312;DHT22;18076;52.154;10.570;2023-11-21T06:19:16;8.10;99.90
21312;DHT22;18076;52.154;10.570;2023-11-21T06:21:45;8.10;99.90
21312;DHT22;18076;52.154;10.570;2023-11-21T06:24:10;8.10;99.90
21312;DHT22;18076;52.154;10.570;2023-11-21T06:26:36;8.10;99.90
21312;DHT22;18076;52.154;10.570;2023-11-21T06:29:02;8.10;99.90
21312;DHT22;18076;52.154;10.570;2023-11-21T06:31:28;8.10;99.90
21312;DHT22;18076;52.154;10.570;2023-11-21T06:33:54;8.10;99.90
21312;DHT22;18076;52.154;10.570;2023-11-21T06:36:20;8.00;99.90
21312;DHT22;18076;52.154;10.570;2023-11-21T06:38:46;8.00;99.90
21312;DHT22;18076;52.154;10.570;2023-11-21T06:41:17;8.10;99.90
21312;DHT22;18076;52.154;10.570;2023-11-21T06:43:46;8.10;99.90
21312;DHT22;18076;52.154;10.570;2023-11-21T06:46:54;8.00;99.90
21312;DHT22;18076;52.154;10.570;2023-11-21T06:49:20;8.00;99.90
21312;DHT22;18076;52.154;10.570;2023-11-21T06:51:46;8.00;99.90
21312;DHT22;18076;52.154;10.570;2023-11-21T06:54:12;8.00;99.90
21312;DHT22;18076;52.154;10.570;2023-11-21T06:56:37;7.80;99.90
21312;DHT22;18076;52.154;10.570;2023-11-21T06:59:04;7.50;99.90
21312;DHT22;18076;52.154;10.570;2023-11-21T07:01:34;7.30;99.90
21312;DHT22;18076;52.154;10.570;2023-11-21T07:04:04;7.20;99.90
21312;DHT22;18076;52.154;10.570;2023-11-21T07:06:30;7.10;99.90
21312;DHT22;18076;52.154;10.570;2023-11-21T07:08:55;7.00;99.90
21312;DHT22;18076;52.154;10.570;2023-11-21T07:11:24;7.00;99.90
21312;DHT22;18076;52.154;10.570;2023-11-21T07:13:50;7.00;99.90
21312;DHT22;18076;52.154;10.570;2023-11-21T07:16:16;7.00;99.90
21312;DHT22;18076;52.154;10.570;2023-11-21T07:18:41;7.00;99.90
21312;DHT22;18076;52.154;10.570;2023-11-21T07:21:07;7.00;99.90
21312;DHT22;18076;52.154;10.570;2023-11-21T07:23:33;7.00;99.90
21312;DHT22;18076;52.154;10.570;2023-11-21T07:25:59;7.00;99.90
21312;DHT22;18076;52.154;10.570;2023-11-21T07:28:24;7.00;99.90
21312;DHT22;18076;52.154;10.570;2023-11-21T07:30:51;7.00;99.90
21312;DHT22;18076;52.154;10.570;2023-11-21T07:33:16;7.00;99.90
21312;DHT22;18076;52.154;10.570;2023-11-21T07:35:42;7.00;99.90
21312;DHT22;18076;52.154;10.570;2023-11-21T07:38:08;7.00;99.90
21312;DHT22;18076;52.154;10.570;2023-11-21T07:40:34;7.00;99.90
21312;DHT22;18076;52.154;10.570;2023-11-21T07:42:59;7.00;99.90
21312;DHT22;18076;52.154;10.570;2023-11-21T07:45:25;7.00;99.90
21312;DHT22;18076;52.154;10.570;2023-11-21T07:47:53;7.00;99.90
21312;DHT22;18076;52.154;10.570;2023-11-21T07:50:19;7.00;99.90
21312;DHT22;18076;52.154;10.570;2023-11-21T07:52:45;7.00;99.90
21312;DHT22;18076;52.154;10.570;2023-11-21T07:55:10;6.90;99.90
21312;DHT22;18076;52.154;10.570;2023-11-21T07:57:37;6.90;99.90
21312;DHT22;18076;52.154;10.570;2023-11-21T08:00:04;6.90;99.90
21312;DHT22;18076;52.154;10.570;2023-11-21T08:02:34;6.80;99.90
21312;DHT22;18076;52.154;10.570;2023-11-21T08:05:00;6.80;99.90
21312;DHT22;18076;52.154;10.570;2023-11-21T08:07:26;6.80;99.90
21312;DHT22;18076;52.154;10.570;2023-11-21T08:09:51;6.80;99.90
21312;DHT22;18076;52.154;10.570;2023-11-21T08:12:18;6.80;99.90
21312;DHT22;18076;52.154;10.570;2023-11-21T08:14:45;6.80;99.90
21312;DHT22;18076;52.154;10.570;2023-11-21T08:17:10;6.80;99.90
21312;DHT22;18076;52.154;10.570;2023-11-21T08:19:36;6.70;99.90
21312;DHT22;18076;52.154;10.570;2023-11-21T08:22:03;6.70;99.90
21312;DHT22;18076;52.154;10.570;2023-11-21T08:24:28;6.60;99.90
21312;DHT22;18076;52.154;10.570;2023-11-21T08:26:54;6.50;99.90
21312;DHT22;18076;52.154;10.570;2023-11-21T08:29:20;6.50;99.90
21312;DHT22;18076;52.154;10.570;2023-11-21T08:31:45;6.50;99.90
21312;DHT22;18076;52.154;10.570;2023-11-21T08:34:12;6.50;99.90
21312;DHT22;18076;52.154;10.570;2023-11-21T08:36:41;6.50;99.90
21312;DHT22;18076;52.154;10.570;2023-11-21T08:39:07;6.50;99.90
21312;DHT22;18076;52.154;10.570;2023-11-21T08:41:33;6.50;99.90
21312;DHT22;18076;52.154;10.570;2023-11-21T08:43:58;6.50;99.90
21312;DHT22;18076;52.154;10.570;2023-11-21T08:46:24;6.50;99.90
21312;DHT22;18076;52.154;10.570;2023-11-21T08:48:51;6.50;99.90
21312;DHT22;18076;52.154;10.570;2023-11-21T08:51:17;6.50;99.90
21312;DHT22;18076;52.154;10.570;2023-11-21T08:53:43;6.60;99.90
21312;DHT22;18076;52.154;10.570;2023-11-21T08:56:12;6.60;99.90
21312;DHT22;18076;52.154;10.570;2023-11-21T08:58:38;6.60;99.90
21312;DHT22;18076;52.154;10.570;2023-11-21T09:01:04;6.70;99.90
21312;DHT22;18076;52.154;10.570;2023-11-21T09:03:29;6.70;99.90
21312;DHT22;18076;52.154;10.570;2023-11-21T09:05:55;6.80;99.90
21312;DHT22;18076;52.154;10.570;2023-11-21T09:08:20;6.80;99.90
21312;DHT22;18076;52.154;10.570;2023-11-21T09:10:47;6.80;99.90
21312;DHT22;18076;52.154;10.570;2023-11-21T09:13:13;6.80;99.90
21312;DHT22;18076;52.154;10.570;2023-11-21T09:15:38;6.80;99.90
21312;DHT22;18076;52.154;10.570;2023-11-21T09:18:04;6.80;99.90
21312;DHT22;18076;52.154;10.570;2023-11-21T09:20:30;6.90;99.90
21312;DHT22;18076;52.154;10.570;2023-11-21T09:22:55;6.90;99.90
21312;DHT22;18076;52.154;10.570;2023-11-21T09:25:21;6.90;99.90
21312;DHT22;18076;52.154;10.570;2023-11-21T09:27:47;7.00;99.90
21312;DHT22;18076;52.154;10.570;2023-11-21T09:30:13;7.00;99.90
21312;DHT22;18076;52.154;10.570;2023-11-21T09:32:40;7.00;99.90
21312;DHT22;18076;52.154;10.570;2023-11-21T09:35:10;7.10;99.90
21312;DHT22;18076;52.154;10.570;2023-11-21T09:37:36;7.00;99.90
21312;DHT22;18076;52.154;10.570;2023-11-21T09:40:03;7.00;99.90
21312;DHT22;18076;52.154;10.570;2023-11-21T09:42:32;7.00;99.90
21312;DHT22;18076;52.154;10.570;2023-11-21T09:47:27;7.00;99.90
21312;DHT22;18076;52.154;10.570;2023-11-21T09:49:54;7.00;99.90
21312;DHT22;18076;52.154;10.570;2023-11-21T09:52:24;7.00;99.90
21312;DHT22;18076;52.154;10.570;2023-11-21T09:54:54;7.00;99.90
21312;DHT22;18076;52.154;10.570;2023-11-21T09:57:31;7.10;99.90
21312;DHT22;18076;52.154;10.570;2023-11-21T09:59:57;7.10;99.90
21312;DHT22;18076;52.154;10.570;2023-11-21T10:02:27;7.10;99.90
21312;DHT22;18076;52.154;10.570;2023-11-21T10:04:54;7.10;99.90
21312;DHT22;18076;52.154;10.570;2023-11-21T10:07:20;7.20;99.90
21312;DHT22;18076;52.154;10.570;2023-11-21T10:09:46;7.30;99.90
21312;DHT22;18076;52.154;10.570;2023-11-21T10:12:12;7.30;99.90
21312;DHT22;18076;52.154;10.570;2023-11-21T10:14:40;7.40;99.90
21312;DHT22;18076;52.154;10.570;2023-11-21T10:17:06;7.40;99.90
21312;DHT22;18076;52.154;10.570;2023-11-21T10:19:35;7.40;99.90
21312;DHT22;18076;52.154;10.570;2023-11-21T10:22:01;7.40;99.90
21312;DHT22;18076;52.154;10.570;2023-11-21T10:24:27;7.40;99.90
21312;DHT22;18076;52.154;10.570;2023-11-21T10:26:53;7.20;99.90
21312;DHT22;18076;52.154;10.570;2023-11-21T10:29:19;7.20;99.90
21312;DHT22;18076;52.154;10.570;2023-11-21T10:31:48;7.10;99.90
21312;DHT22;18076;52.154;10.570;2023-11-21T10:36:40;7.20;99.90
21312;DHT22;18076;52.154;10.570;2023-11-21T10:39:05;7.20;99.90
21312;DHT22;18076;52.154;10.570;2023-11-21T10:41:31;7.20;99.90
21312;DHT22;18076;52.154;10.570;2023-11-21T10:44:02;7.10;99.90
21312;DHT22;18076;52.154;10.570;2023-11-21T10:46:32;7.20;99.90
21312;DHT22;18076;52.154;10.570;2023-11-21T10:48:59;7.30;99.90
21312;DHT22;18076;52.154;10.570;2023-11-21T10:51:25;7.20;99.90
21312;DHT22;18076;52.154;10.570;2023-11-21T10:53:53;7.20;99.90
21312;DHT22;18076;52.154;10.570;2023-11-21T10:56:19;7.30;99.90
21312;DHT22;18076;52.154;10.570;2023-11-21T10:58:51;7.20;99.90
21312;DHT22;18076;52.154;10.570;2023-11-21T11:01:18;7.10;99.90
21312;DHT22;18076;52.154;10.570;2023-11-21T11:03:46;7.20;99.90
21312;DHT22;18076;52.154;10.570;2023-11-21T11:06:13;7.20;99.90
21312;DHT22;18076;52.154;10.570;2023-11-21T11:08:39;7.20;99.90
21312;DHT22;18076;52.154;10.570;2023-11-21T11:11:05;7.20;99.90
21312;DHT22;18076;52.154;10.570;2023-11-21T11:13:30;7.20;99.90
21312;DHT22;18076;52.154;10.570;2023-11-21T11:16:03;7.20;99.90
21312;DHT22;18076;52.154;10.570;2023-11-21T11:18:32;7.30;99.90
21312;DHT22;18076;52.154;10.570;2023-11-21T11:21:06;7.30;99.90
21312;DHT22;18076;52.154;10.570;2023-11-21T11:23:46;7.40;99.90
21312;DHT22;18076;52.154;10.570;2023-11-21T11:29:03;7.40;99.90
21312;DHT22;18076;52.154;10.570;2023-11-21T11:36:48;7.30;99.90
21312;DHT22;18076;52.154;10.570;2023-11-21T11:39:29;7.40;99.90
21312;DHT22;18076;52.154;10.570;2023-11-21T11:41:58;7.50;99.90
21312;DHT22;18076;52.154;10.570;2023-11-21T11:49:55;7.60;99.90
21312;DHT22;18076;52.154;10.570;2023-11-21T11:54:59;7.60;99.90
21312;DHT22;18076;52.154;10.570;2023-11-21T11:57:25;7.60;99.90
21312;DHT22;18076;52.154;10.570;2023-11-21T12:02:36;7.50;99.90
21312;DHT22;18076;52.154;10.570;2023-11-21T12:05:12;7.40;99.90
21312;DHT22;18076;52.154;10.570;2023-11-21T12:07:40;7.40;99.90
21312;DHT22;18076;52.154;10.570;2023-11-21T12:10:06;7.30;99.90
21312;DHT22;18076;52.154;10.570;2023-11-21T12:12:32;7.40;99.90
21312;DHT22;18076;52.154;10.570;2023-11-21T12:14:58;7.40;99.90
21312;DHT22;18076;52.154;10.570;2023-11-21T12:17:24;7.40;99.90
21312;DHT22;18076;52.154;10.570;2023-11-21T12:19:50;7.40;99.90
21312;DHT22;18076;52.154;10.570;2023-11-21T12:22:17;7.40;99.90
21312;DHT22;18076;52.154;10.570;2023-11-21T12:24:44;7.40;99.90
21312;DHT22;18076;52.154;10.570;2023-11-21T12:27:10;7.40;99.90
21312;DHT22;18076;52.154;10.570;2023-11-21T12:29:35;7.40;99.90
21312;DHT22;18076;52.154;10.570;2023-11-21T12:32:03;7.40;99.90
21312;DHT22;18076;52.154;10.570;2023-11-21T12:34:28;7.40;99.90
21312;DHT22;18076;52.154;10.570;2023-11-21T12:36:54;7.30;99.90
21312;DHT22;18076;52.154;10.570;2023-11-21T12:39:20;7.40;99.90
21312;DHT22;18076;52.154;10.570;2023-11-21T12:41:48;7.30;99.90
21312;DHT22;18076;52.154;10.570;2023-11-21T12:44:13;7.30;99.90
21312;DHT22;18076;52.154;10.570;2023-11-21T12:46:41;7.30;99.90
21312;DHT22;18076;52.154;10.570;2023-11-21T12:49:07;7.40;99.90
21312;DHT22;18076;52.154;10.570;2023-11-21T12:51:33;7.50;99.90
21312;DHT22;18076;52.154;10.570;2023-11-21T12:53:59;7.60;99.90
21312;DHT22;18076;52.154;10.570;2023-11-21T12:56:25;7.70;99.90
21312;DHT22;18076;52.154;10.570;2023-11-21T12:58:53;7.60;99.90
21312;DHT22;18076;52.154;10.570;2023-11-21T13:01:19;7.40;99.90
21312;DHT22;18076;52.154;10.570;2023-11-21T13:03:47;7.40;99.90
21312;DHT22;18076;52.154;10.570;2023-11-21T13:06:14;7.40;99.90
21312;DHT22;18076;52.154;10.570;2023-11-21T13:08:40;7.40;99.90
21312;DHT22;18076;52.154;10.570;2023-11-21T13:11:05;7.50;99.90
21312;DHT22;18076;52.154;10.570;2023-11-21T13:13:31;7.60;99.90
21312;DHT22;18076;52.154;10.570;2023-11-21T13:15:59;7.60;99.90
21312;DHT22;18076;52.154;10.570;2023-11-21T13:18:30;7.60;99.90
21312;DHT22;18076;52.154;10.570;2023-11-21T13:21:03;7.50;99.90
21312;DHT22;18076;52.154;10.570;2023-11-21T13:23:39;7.40;99.90
21312;DHT22;18076;52.154;10.570;2023-11-21T13:26:06;7.30;99.90
21312;DHT22;18076;52.154;10.570;2023-11-21T13:28:32;7.20;99.90
21312;DHT22;18076;52.154;10.570;2023-11-21T13:30:59;7.20;99.90
21312;DHT22;18076;52.154;10.570;2023-11-21T13:33:47;7.10;99.90
21312;DHT22;18076;52.154;10.570;2023-11-21T13:36:16;7.00;99.90
21312;DHT22;18076;52.154;10.570;2023-11-21T13:38:48;7.00;99.90
21312;DHT22;18076;52.154;10.570;2023-11-21T13:41:17;7.00;99.90
21312;DHT22;18076;52.154;10.570;2023-11-21T13:43:43;7.00;99.90
21312;DHT22;18076;52.154;10.570;2023-11-21T13:46:15;7.00;99.90
21312;DHT22;18076;52.154;10.570;2023-11-21T13:48:47;7.00;99.90
21312;DHT22;18076;52.154;10.570;2023-11-21T13:51:18;7.00;99.90
21312;DHT22;18076;52.154;10.570;2023-11-21T13:53:45;7.00;99.90
21312;DHT22;18076;52.154;10.570;2023-11-21T13:56:13;7.00;99.90
21312;DHT22;18076;52.154;10.570;2023-11-21T13:58:54;7.00;99.90
21312;DHT22;18076;52.154;10.570;2023-11-21T14:01:22;6.90;99.90
21312;DHT22;18076;52.154;10.570;2023-11-21T14:04:08;6.90;99.90
21312;DHT22;18076;52.154;10.570;2023-11-21T14:06:50;6.90;99.90
21312;DHT22;18076;52.154;10.570;2023-11-21T14:09:19;6.80;99.90
21312;DHT22;18076;52.154;10.570;2023-11-21T14:11:52;6.70;99.90
21312;DHT22;18076;52.154;10.570;2023-11-21T14:14:21;6.70;99.90
21312;DHT22;18076;52.154;10.570;2023-11-21T14:16:47;6.60;99.90
21312;DHT22;18076;52.154;10.570;2023-11-21T14:19:13;6.60;99.90
21312;DHT22;18076;52.154;10.570;2023-11-21T14:21:45;6.60;99.90
21312;DHT22;18076;52.154;10.570;2023-11-21T14:24:11;6.60;99.90
21312;DHT22;18076;52.154;10.570;2023-11-21T14:26:42;6.50;99.90
21312;DHT22;18076;52.154;10.570;2023-11-21T14:29:08;6.50;99.90
21312;DHT22;18076;52.154;10.570;2023-11-21T14:31:34;6.40;99.90
21312;DHT22;18076;52.154;10.570;2023-11-21T14:34:00;6.50;99.90
21312;DHT22;18076;52.154;10.570;2023-11-21T14:36:28;6.50;99.90
21312;DHT22;18076;52.154;10.570;2023-11-21T14:38:54;6.40;99.90
21312;DHT22;18076;52.154;10.570;2023-11-21T14:41:19;6.40;99.90
21312;DHT22;18076;52.154;10.570;2023-11-21T14:43:45;6.30;99.90
21312;DHT22;18076;52.154;10.570;2023-11-21T14:46:13;6.30;99.90
21312;DHT22;18076;52.154;10.570;2023-11-21T14:48:42;6.30;99.90
21312;DHT22;18076;52.154;10.570;2023-11-21T14:51:11;6.30;99.90
21312;DHT22;18076;52.154;10.570;2023-11-21T14:53:46;6.30;99.90
21312;DHT22;18076;52.154;10.570;2023-11-21T14:56:19;6.30;99.90
21312;DHT22;18076;52.154;10.570;2023-11-21T14:58:57;6.20;99.90
21312;DHT22;18076;52.154;10.570;2023-11-21T15:01:37;6.20;99.90
21312;DHT22;18076;52.154;10.570;2023-11-21T15:04:20;6.20;99.90
21312;DHT22;18076;52.154;10.570;2023-11-21T15:07:05;6.20;99.90
21312;DHT22;18076;52.154;10.570;2023-11-21T15:09:31;6.10;99.90
21312;DHT22;18076;52.154;10.570;2023-11-21T15:11:57;6.10;99.90
21312;DHT22;18076;52.154;10.570;2023-11-21T15:14:29;6.00;99.90
21312;DHT22;18076;52.154;10.570;2023-11-21T15:16:57;5.90;99.90
21312;DHT22;18076;52.154;10.570;2023-11-21T15:19:25;5.90;99.90
21312;DHT22;18076;52.154;10.570;2023-11-21T15:21:52;5.80;99.90
21312;DHT22;18076;52.154;10.570;2023-11-21T15:24:17;5.80;99.90
21312;DHT22;18076;52.154;10.570;2023-11-21T15:26:43;5.80;99.90
21312;DHT22;18076;52.154;10.570;2023-11-21T15:29:08;5.70;99.90
21312;DHT22;18076;52.154;10.570;2023-11-21T15:31:34;5.70;99.90
21312;DHT22;18076;52.154;10.570;2023-11-21T15:34:01;5.70;99.90
21312;DHT22;18076;52.154;10.570;2023-11-21T15:36:27;5.70;99.90
21312;DHT22;18076;52.154;10.570;2023-11-21T15:38:53;5.60;99.90
21312;DHT22;18076;52.154;10.570;2023-11-21T15:41:19;5.60;99.90
21312;DHT22;18076;52.154;10.570;2023-11-21T15:43:45;5.60;99.90
21312;DHT22;18076;52.154;10.570;2023-11-21T15:46:12;5.60;99.90
21312;DHT22;18076;52.154;10.570;2023-11-21T15:48:38;5.60;99.90
21312;DHT22;18076;52.154;10.570;2023-11-21T15:51:09;5.60;99.90
21312;DHT22;18076;52.154;10.570;2023-11-21T15:53:37;5.50;99.90